Terminal Aerodrome Forecast
Issued by NWS Sterling, VA

Home | Current Version | Previous Version | Text Only | Print | Product List | Glossary On
Versions: 1 2 3 4 5 6 7 8 9 10 11 12 13 14 15
000
FTUS41 KLWX 302300
TAFMRB
TAF
KMRB 302320Z 3100/3124 00000KT P6SM BKN250
     FM310900 00000KT 5SM BR BKN250
     FM311200 00000KT P6SM SCT250
     FM311500 27006KT P6SM FEW050 SCT250=

USA.gov is the U.S. government's official web portal to all federal, state and local government web resources and services.